createdAt,value
2023-04-03T00:00:24.293Z,6.14
2023-04-03T00:03:28.427Z,6.15
2023-04-03T00:06:31.162Z,6.19
2023-04-03T00:09:33.874Z,6.18
2023-04-03T00:12:37.260Z,6.15
2023-04-03T00:15:40.802Z,6.07
2023-04-03T00:18:45.788Z,6.13
2023-04-03T00:21:48.432Z,6.08
2023-04-03T00:24:51.100Z,6.11
2023-04-03T00:27:53.835Z,6.13
2023-04-03T00:30:56.671Z,6.19
2023-04-03T00:34:00.916Z,6.16
2023-04-03T00:37:03.652Z,6.16
2023-04-03T00:40:08.387Z,6.19
2023-04-03T00:43:14.609Z,6.24
2023-04-03T00:46:17.397Z,6.21
2023-04-03T00:49:22.068Z,6.28
2023-04-03T00:52:30.511Z,6.29
2023-04-03T00:55:33.639Z,6.31
2023-04-03T00:58:42.056Z,6.16
2023-04-03T01:01:45.893Z,6.13
2023-04-03T01:04:49.957Z,6.05
2023-04-03T01:07:54.446Z,6.03
2023-04-03T01:10:57.134Z,6.02
2023-04-03T01:13:59.812Z,6.06
2023-04-03T01:17:02.467Z,6.01
2023-04-03T01:20:37.397Z,6.03
2023-04-03T01:23:55.288Z,6.06
2023-04-03T01:26:58.198Z,5.97
2023-04-03T01:30:00.963Z,5.99
2023-04-03T01:33:05.402Z,6.01
2023-04-03T01:36:11.350Z,5.96
2023-04-03T01:39:14.416Z,6.03
2023-04-03T01:42:17.320Z,6.04
2023-04-03T01:45:20.154Z,6.02
2023-04-03T01:48:24.225Z,5.96
2023-04-03T01:51:27.126Z,5.85
2023-04-03T01:54:29.801Z,5.86
2023-04-03T01:57:32.597Z,5.88
2023-04-03T02:00:35.678Z,5.92
2023-04-03T02:03:40.005Z,5.89
2023-04-03T02:06:42.745Z,5.88
2023-04-03T02:09:45.464Z,5.86
2023-04-03T02:12:48.180Z,5.80
2023-04-03T02:15:51.160Z,5.80
2023-04-03T02:18:55.190Z,5.85
2023-04-03T02:21:58.232Z,5.87
2023-04-03T02:25:01.596Z,5.91
2023-04-03T02:28:04.577Z,5.96
2023-04-03T02:31:08.324Z,5.91
2023-04-03T02:34:12.677Z,5.88
2023-04-03T02:37:15.484Z,5.82
2023-04-03T02:40:18.420Z,5.84
2023-04-03T02:43:21.137Z,5.91
2023-04-03T02:46:23.870Z,5.92
2023-04-03T02:49:28.020Z,5.94
2023-04-03T02:52:30.757Z,6.02
2023-04-03T02:55:33.412Z,5.92
2023-04-03T02:58:36.506Z,5.93
2023-04-03T03:01:39.305Z,5.95
2023-04-03T03:04:43.676Z,5.97
2023-04-03T03:07:46.437Z,5.99
2023-04-03T03:10:49.103Z,5.90
2023-04-03T03:13:52.256Z,5.97
2023-04-03T03:16:54.964Z,5.96
2023-04-03T03:19:59.054Z,6.00
2023-04-03T03:23:01.710Z,5.97
2023-04-03T03:26:06.483Z,5.99
2023-04-03T03:29:09.204Z,6.00
2023-04-03T03:32:11.890Z,6.04
2023-04-03T03:35:16.074Z,6.04
2023-04-03T03:38:18.882Z,5.95
2023-04-03T03:41:21.648Z,5.98
2023-04-03T03:44:24.340Z,5.98
2023-04-03T03:47:27.401Z,5.95
2023-04-03T03:50:31.476Z,5.95
2023-04-03T03:53:34.148Z,5.97
2023-04-03T03:56:36.885Z,6.01
2023-04-03T03:59:41.221Z,5.99
2023-04-03T04:02:44.611Z,5.90
2023-04-03T04:05:48.690Z,5.71
2023-04-03T04:08:51.594Z,5.57
2023-04-03T04:11:54.464Z,5.47
2023-04-03T04:14:57.123Z,5.43
2023-04-03T04:17:59.924Z,5.43
2023-04-03T04:21:04.271Z,5.48
2023-04-03T04:24:07.858Z,5.48
2023-04-03T04:27:10.785Z,5.37
2023-04-03T04:30:14.884Z,5.39
2023-04-03T04:33:17.582Z,5.44
2023-04-03T04:36:22.062Z,5.53
2023-04-03T04:39:24.945Z,5.64
2023-04-03T04:42:27.907Z,5.68
2023-04-03T04:45:30.680Z,5.70
2023-04-03T04:48:33.622Z,5.75
2023-04-03T04:51:48.480Z,5.72
2023-04-03T04:54:54.136Z,5.70
2023-04-03T04:57:56.840Z,5.70
2023-04-03T05:01:02.422Z,5.70
2023-04-03T05:04:05.202Z,5.67
2023-04-03T05:07:09.237Z,5.68
2023-04-03T05:10:12.200Z,5.66
2023-04-03T05:13:15.569Z,5.72
2023-04-03T05:16:18.302Z,5.78
2023-04-03T05:19:21.479Z,5.83
2023-04-03T05:22:25.533Z,5.78
2023-04-03T05:25:28.735Z,5.85
2023-04-03T05:28:31.831Z,5.97
2023-04-03T05:31:34.647Z,5.96
2023-04-03T05:34:37.372Z,5.96
2023-04-03T05:37:42.089Z,5.96
2023-04-03T05:40:45.141Z,5.94
2023-04-03T05:43:48.533Z,5.99
2023-04-03T05:46:51.553Z,6.04
2023-04-03T05:49:54.828Z,6.05
2023-04-03T05:52:59.968Z,6.05
2023-04-03T05:56:03.009Z,6.04
2023-04-03T05:59:05.716Z,6.02
2023-04-03T06:02:08.627Z,6.03
2023-04-03T06:05:12.626Z,6.05
2023-04-03T06:08:16.685Z,5.97
2023-04-03T06:11:19.617Z,5.81
2023-04-03T06:14:22.441Z,5.79
2023-04-03T06:17:25.552Z,5.79
2023-04-03T06:20:28.505Z,5.82
2023-04-03T06:23:33.873Z,5.65
2023-04-03T06:26:37.340Z,5.63
2023-04-03T06:29:40.831Z,5.58
2023-04-03T06:32:44.005Z,5.61
2023-04-03T06:35:47.724Z,5.52
2023-04-03T06:38:52.350Z,5.62
2023-04-03T06:41:55.079Z,5.56
2023-04-03T06:44:57.752Z,5.56
2023-04-03T06:48:00.995Z,5.40
2023-04-03T06:51:04.278Z,5.44
2023-04-03T06:54:09.216Z,5.48
2023-04-03T06:57:12.228Z,5.51
2023-04-03T07:00:17.287Z,5.59
2023-04-03T07:03:20.363Z,5.62
2023-04-03T07:06:23.571Z,5.62
2023-04-03T07:09:27.733Z,5.52
2023-04-03T07:12:30.824Z,5.52
2023-04-03T07:15:34.539Z,5.74
2023-04-03T07:18:37.965Z,5.93
2023-04-03T07:21:41.654Z,6.04
2023-04-03T07:24:46.279Z,6.20
2023-04-03T07:27:50.059Z,6.38
2023-04-03T07:30:54.971Z,6.41
2023-04-03T07:33:57.967Z,6.25
2023-04-03T07:37:02.145Z,6.28
2023-04-03T07:40:07.979Z,6.26
2023-04-03T07:43:11.020Z,6.39
2023-04-03T07:46:13.890Z,6.45
2023-04-03T07:49:19.005Z,6.73
2023-04-03T07:52:21.850Z,6.69
2023-04-03T07:55:26.191Z,6.83
2023-04-03T07:58:28.858Z,6.98
2023-04-03T08:01:33.526Z,6.90
2023-04-03T08:04:36.741Z,6.72
2023-04-03T08:07:40.112Z,6.75
2023-04-03T08:10:44.667Z,6.83
2023-04-03T08:13:47.924Z,6.91
2023-04-03T08:16:51.441Z,6.77
2023-04-03T08:19:54.713Z,6.62
2023-04-03T08:22:57.447Z,6.65
2023-04-03T08:26:01.633Z,6.93
2023-04-03T08:29:04.669Z,7.27
2023-04-03T08:32:07.696Z,7.34
2023-04-03T08:35:11.728Z,7.45
2023-04-03T08:38:14.796Z,7.61
2023-04-03T08:41:31.452Z,7.56
2023-04-03T08:44:44.526Z,7.70
2023-04-03T08:47:56.451Z,7.81
2023-04-03T08:51:03.677Z,7.91
2023-04-03T08:54:17.703Z,7.75
2023-04-03T08:57:29.063Z,7.51
2023-04-03T09:00:43.853Z,7.34
2023-04-03T09:03:47.065Z,7.36
2023-04-03T09:06:55.112Z,7.36
2023-04-03T09:10:02.234Z,7.33
2023-04-03T09:13:11.775Z,7.52
2023-04-03T09:16:23.575Z,7.79
2023-04-03T09:19:38.326Z,7.93
2023-04-03T09:22:49.812Z,7.82
2023-04-03T09:26:00.117Z,7.60
2023-04-03T09:29:09.405Z,7.57
2023-04-03T09:32:23.588Z,7.60
2023-04-03T09:35:40.475Z,7.54
2023-04-03T09:39:05.511Z,7.41
2023-04-03T09:42:20.430Z,7.58
2023-04-03T09:45:27.519Z,7.67
2023-04-03T09:48:30.456Z,7.69
2023-04-03T09:51:33.990Z,7.79
2023-04-03T09:54:41.062Z,7.79
2023-04-03T09:57:44.385Z,7.70
2023-04-03T10:00:57.004Z,7.85
2023-04-03T10:04:10.010Z,7.97
2023-04-03T10:07:30.938Z,8.10
2023-04-03T10:10:33.909Z,8.23
2023-04-03T10:13:48.756Z,8.07
2023-04-03T10:17:01.796Z,8.08
2023-04-03T10:20:12.841Z,7.96
2023-04-03T10:23:21.370Z,7.74
2023-04-03T10:26:34.973Z,7.68
2023-04-03T10:29:44.785Z,7.62
2023-04-03T10:32:57.692Z,7.44
2023-04-03T10:36:10.410Z,7.36
2023-04-03T10:39:23.410Z,7.26
2023-04-03T10:42:33.719Z,7.15
2023-04-03T10:45:52.365Z,7.09
2023-04-03T10:49:08.297Z,7.11
2023-04-03T10:52:19.537Z,7.04
2023-04-03T10:55:31.165Z,7.17
2023-04-03T10:58:38.253Z,7.29
2023-04-03T11:01:44.508Z,7.20
2023-04-03T11:04:55.314Z,7.25
2023-04-03T11:08:03.608Z,7.43
2023-04-03T11:11:10.681Z,7.59
2023-04-03T11:14:19.891Z,7.75
2023-04-03T11:17:31.572Z,7.89
2023-04-03T11:20:38.875Z,7.92
2023-04-03T11:23:49.376Z,7.95
2023-04-03T11:26:55.523Z,7.94
2023-04-03T11:29:59.533Z,7.95
2023-04-03T11:33:31.237Z,7.74
2023-04-03T11:36:42.713Z,7.77
2023-04-03T11:39:55.988Z,7.73
2023-04-03T11:43:08.701Z,7.81
2023-04-03T11:46:11.949Z,7.82
2023-04-03T11:49:47.924Z,7.55
2023-04-03T11:53:01.592Z,7.52
2023-04-03T11:56:06.722Z,7.55
2023-04-03T11:59:28.541Z,7.62
2023-04-03T12:05:44.915Z,7.87
2023-04-03T12:08:52.535Z,8.05
2023-04-03T12:11:56.681Z,8.29
2023-04-03T12:15:21.873Z,8.44
2023-04-03T12:18:43.583Z,8.49
2023-04-03T12:22:29.238Z,8.37
2023-04-03T12:25:51.384Z,8.19
2023-04-03T12:28:56.557Z,8.01
2023-04-03T12:32:11.536Z,7.92
2023-04-03T12:35:24.785Z,7.86
2023-04-03T12:38:54.527Z,7.90
2023-04-03T12:42:12.574Z,8.15
2023-04-03T12:45:21.454Z,8.34
2023-04-03T12:48:27.980Z,8.49
2023-04-03T12:51:37.229Z,8.53
2023-04-03T12:54:41.810Z,8.45
2023-04-03T12:57:46.777Z,8.25
2023-04-03T13:01:02.272Z,8.01
2023-04-03T13:04:05.280Z,8.01
2023-04-03T13:07:20.515Z,7.99
2023-04-03T13:10:23.218Z,7.98
2023-04-03T13:13:27.484Z,8.01
2023-04-03T13:16:30.669Z,8.19
2023-04-03T13:19:33.528Z,8.40
2023-04-03T13:22:42.569Z,8.50
2023-04-03T13:25:48.340Z,8.60
2023-04-03T13:28:53.868Z,8.61
2023-04-03T13:31:58.968Z,8.63
2023-04-03T13:35:15.616Z,8.64
2023-04-03T13:38:26.411Z,8.53
2023-04-03T13:41:33.754Z,8.54
2023-04-03T13:44:40.753Z,8.69
2023-04-03T13:47:45.638Z,8.61
2023-04-03T13:51:00.791Z,8.64
2023-04-03T13:54:20.046Z,8.61
2023-04-03T13:57:23.446Z,8.65
2023-04-03T14:00:39.506Z,8.71
2023-04-03T14:03:46.208Z,8.75
2023-04-03T14:06:50.452Z,8.81
2023-04-03T14:09:54.880Z,8.90
2023-04-03T14:12:57.800Z,8.86
2023-04-03T14:16:15.730Z,8.77
2023-04-03T14:19:23.179Z,8.70
2023-04-03T14:22:29.446Z,8.58
2023-04-03T14:25:33.104Z,8.45
2023-04-03T14:28:36.383Z,8.30
2023-04-03T14:31:40.923Z,8.36
2023-04-03T14:34:44.923Z,8.35
2023-04-03T14:37:49.163Z,8.36
2023-04-03T14:40:52.008Z,8.46
2023-04-03T14:43:55.354Z,8.36
2023-04-03T14:46:59.618Z,8.38
2023-04-03T14:50:03.329Z,8.81
2023-04-03T14:53:06.184Z,9.23
2023-04-03T14:56:15.128Z,9.45
2023-04-03T14:59:20.972Z,9.51
2023-04-03T15:02:33.792Z,9.37
2023-04-03T15:05:38.327Z,9.57
2023-04-03T15:08:42.130Z,9.71
2023-04-03T15:11:45.056Z,9.74
2023-04-03T15:14:57.458Z,9.96
2023-04-03T15:18:05.807Z,10.26
2023-04-03T15:21:08.646Z,10.71
2023-04-03T15:24:12.413Z,11.16
2023-04-03T15:27:16.419Z,11.47
2023-04-03T15:30:20.795Z,11.36
2023-04-03T15:33:25.370Z,10.73
2023-04-03T15:36:34.687Z,10.08
2023-04-03T15:39:37.929Z,9.42
2023-04-03T15:42:41.311Z,9.03
2023-04-03T15:45:44.923Z,8.76
2023-04-03T15:48:50.533Z,8.71
2023-04-03T15:51:53.533Z,8.97
2023-04-03T15:54:56.666Z,9.25
2023-04-03T15:57:59.497Z,9.34
2023-04-03T16:01:02.643Z,9.10
2023-04-03T16:04:09.400Z,8.98
2023-04-03T16:07:12.402Z,9.14
2023-04-03T16:10:18.591Z,9.29
2023-04-03T16:13:21.208Z,9.09
2023-04-03T16:16:25.469Z,8.96
2023-04-03T16:19:30.882Z,8.87
2023-04-03T16:22:33.927Z,8.54
2023-04-03T16:25:37.182Z,8.19
2023-04-03T16:28:40.089Z,7.90
2023-04-03T16:31:42.939Z,7.82
2023-04-03T16:34:47.063Z,7.68
2023-04-03T16:37:50.000Z,7.54
2023-04-03T16:40:53.451Z,7.65
2023-04-03T16:43:56.262Z,7.77
2023-04-03T16:46:59.924Z,7.83
2023-04-03T16:50:04.323Z,7.87
2023-04-03T16:53:10.297Z,7.93
2023-04-03T16:56:12.984Z,7.85
2023-04-03T16:59:15.782Z,7.83
2023-04-03T17:02:18.450Z,7.91
2023-04-03T17:05:22.492Z,7.91
2023-04-03T17:08:25.103Z,7.90
2023-04-03T17:11:28.629Z,7.92
2023-04-03T17:14:31.417Z,7.93
2023-04-03T17:17:34.261Z,7.94
2023-04-03T17:20:39.239Z,7.91
2023-04-03T17:23:43.112Z,7.96
2023-04-03T17:26:46.154Z,7.86
2023-04-03T17:29:49.026Z,7.83
2023-04-03T17:32:52.024Z,7.76
2023-04-03T17:35:58.018Z,7.78
2023-04-03T17:39:00.851Z,7.75
2023-04-03T17:42:03.562Z,7.68
2023-04-03T17:45:08.100Z,7.67
2023-04-03T17:48:12.096Z,7.68
2023-04-03T17:51:18.191Z,7.62
2023-04-03T17:54:21.117Z,7.62
2023-04-03T17:57:23.855Z,7.62
2023-04-03T18:00:26.892Z,7.57
2023-04-03T18:03:30.182Z,7.51
2023-04-03T18:06:39.469Z,7.54
2023-04-03T18:09:42.426Z,7.53
2023-04-03T18:12:45.397Z,7.57
2023-04-03T18:15:48.204Z,7.45
2023-04-03T18:19:02.475Z,7.44
2023-04-03T18:22:19.425Z,7.41
2023-04-03T18:25:22.492Z,7.44
2023-04-03T18:28:26.960Z,7.40
2023-04-03T18:31:33.744Z,7.45
2023-04-03T18:34:36.946Z,7.48
2023-04-03T18:37:41.475Z,7.43
2023-04-03T18:40:44.826Z,7.40
2023-04-03T18:43:48.421Z,7.41
2023-04-03T18:46:52.641Z,7.33
2023-04-03T18:49:55.536Z,7.26
2023-04-03T18:52:59.539Z,7.16
2023-04-03T18:56:02.287Z,7.15
2023-04-03T18:59:06.286Z,7.11
2023-04-03T19:02:10.451Z,7.14
2023-04-03T19:05:16.155Z,7.06
2023-04-03T19:08:20.476Z,7.02
2023-04-03T19:11:23.701Z,6.96
2023-04-03T19:14:26.393Z,6.86
2023-04-03T19:17:29.398Z,6.85
2023-04-03T19:20:32.369Z,6.82
2023-04-03T19:23:36.705Z,6.82
2023-04-03T19:26:39.877Z,6.78
2023-04-03T19:29:42.613Z,6.75
2023-04-03T19:32:45.505Z,6.74
2023-04-03T19:35:48.221Z,6.73
2023-04-03T19:38:52.254Z,6.74
2023-04-03T19:41:55.038Z,6.71
2023-04-03T19:44:58.458Z,6.61
2023-04-03T19:48:01.550Z,6.58
2023-04-03T19:51:06.062Z,6.65
2023-04-03T19:54:10.882Z,6.68
2023-04-03T19:57:14.254Z,6.58
2023-04-03T20:00:18.283Z,6.54
2023-04-03T20:03:21.213Z,6.37
2023-04-03T20:06:25.017Z,6.44
2023-04-03T20:09:29.069Z,6.29
2023-04-03T20:12:31.789Z,6.23
2023-04-03T20:15:40.296Z,6.07
2023-04-03T20:18:43.024Z,5.96
2023-04-03T20:21:45.889Z,5.91
2023-04-03T20:24:50.010Z,5.88
2023-04-03T20:27:54.170Z,5.90
2023-04-03T20:30:57.274Z,5.79
2023-04-03T20:34:00.199Z,5.74
2023-04-03T20:37:02.932Z,5.67
2023-04-03T20:40:09.109Z,5.66
2023-04-03T20:43:12.076Z,5.66
2023-04-03T20:46:19.444Z,5.59
2023-04-03T20:49:23.291Z,5.53
2023-04-03T20:52:26.213Z,5.50
2023-04-03T20:55:30.995Z,5.45
2023-04-03T20:58:34.377Z,5.43
2023-04-03T21:01:40.028Z,5.38
2023-04-03T21:04:51.263Z,5.56
2023-04-03T21:08:33.587Z,5.42
2023-04-03T21:12:16.770Z,5.38
2023-04-03T21:15:47.887Z,5.38
2023-04-03T21:19:07.350Z,5.34
2023-04-03T21:22:10.879Z,5.33
2023-04-03T21:25:14.007Z,5.29
2023-04-03T21:28:17.317Z,5.32
2023-04-03T21:31:21.180Z,5.18
2023-04-03T21:34:28.066Z,5.15
2023-04-03T21:37:34.320Z,5.18
2023-04-03T21:40:37.164Z,5.06
2023-04-03T21:43:39.801Z,4.97
2023-04-03T21:46:42.510Z,4.89
2023-04-03T21:49:47.540Z,4.75
2023-04-03T21:52:53.977Z,4.75
2023-04-03T21:55:57.350Z,4.70
2023-04-03T21:59:02.298Z,4.69
2023-04-03T22:02:05.830Z,4.66
2023-04-03T22:05:11.538Z,4.66
2023-04-03T22:08:14.544Z,4.70
2023-04-03T22:11:17.466Z,4.62
2023-04-03T22:14:20.305Z,4.53
2023-04-03T22:17:23.089Z,4.46
2023-04-03T22:20:27.261Z,4.44
2023-04-03T22:23:30.047Z,4.27
2023-04-03T22:26:32.828Z,4.24
2023-04-03T22:29:35.611Z,4.24
2023-04-03T22:32:39.093Z,4.27
2023-04-03T22:35:48.042Z,4.21
2023-04-03T22:38:50.974Z,4.15
2023-04-03T22:41:53.809Z,4.12
2023-04-03T22:44:56.910Z,4.06
2023-04-03T22:48:00.259Z,4.07
2023-04-03T22:51:08.111Z,4.12
2023-04-03T22:54:10.826Z,4.12
2023-04-03T22:57:13.561Z,3.96
2023-04-03T23:00:17.484Z,3.96
2023-04-03T23:03:20.198Z,3.95
2023-04-03T23:06:24.281Z,3.95
2023-04-03T23:09:26.918Z,3.96
2023-04-03T23:12:29.551Z,3.93
2023-04-03T23:15:32.233Z,3.92
2023-04-03T23:18:34.947Z,3.87
2023-04-03T23:21:39.344Z,3.85
2023-04-03T23:24:42.031Z,3.88
2023-04-03T23:27:51.520Z,3.80
2023-04-03T23:30:59.273Z,3.68
2023-04-03T23:34:02.106Z,3.65
2023-04-03T23:37:06.553Z,3.57
2023-04-03T23:40:10.854Z,3.55
2023-04-03T23:43:14.181Z,3.51
2023-04-03T23:46:17.150Z,3.39
2023-04-03T23:49:19.948Z,3.31
2023-04-03T23:52:24.025Z,3.21
2023-04-03T23:55:27.165Z,3.14
2023-04-03T23:58:29.961Z,3.15
